createdAt,value
2023-01-23T00:01:25.427Z,58.30
2023-01-23T00:03:54.478Z,52.45
2023-01-23T00:06:22.106Z,59.85
2023-01-23T00:08:49.030Z,54.58
2023-01-23T00:11:22.410Z,55.72
2023-01-23T00:13:49.638Z,51.55
2023-01-23T00:16:26.016Z,52.40
2023-01-23T00:18:53.894Z,53.78
2023-01-23T00:21:24.846Z,50.72
2023-01-23T00:23:57.819Z,53.83
2023-01-23T00:28:55.482Z,56.78
2023-01-23T00:31:26.926Z,59.22
2023-01-23T00:34:01.303Z,51.78
2023-01-23T00:36:31.719Z,54.40
2023-01-23T00:38:58.991Z,56.03
2023-01-23T00:41:26.599Z,55.38
2023-01-23T00:43:53.577Z,52.83
2023-01-23T00:46:21.606Z,55.65
2023-01-23T00:48:48.728Z,50.90
2023-01-23T00:51:15.848Z,56.38
2023-01-23T00:53:43.607Z,55.58
2023-01-23T00:56:10.605Z,54.25
2023-01-23T00:58:37.412Z,50.63
2023-01-23T01:01:04.481Z,46.70
2023-01-23T01:03:31.304Z,51.05
2023-01-23T01:05:58.438Z,49.30
2023-01-23T01:08:25.222Z,42.80
2023-01-23T01:10:52.543Z,42.70
2023-01-23T01:13:21.446Z,47.10
2023-01-23T01:15:50.813Z,42.33
2023-01-23T01:18:18.718Z,45.95
2023-01-23T01:20:45.619Z,47.78
2023-01-23T01:23:12.806Z,46.60
2023-01-23T01:25:40.341Z,47.75
2023-01-23T01:28:08.095Z,45.85
2023-01-23T01:30:36.802Z,46.60
2023-01-23T01:33:05.057Z,44.97
2023-01-23T01:35:32.702Z,46.58
2023-01-23T01:38:00.188Z,40.50
2023-01-23T01:40:33.544Z,45.55
2023-01-23T01:43:07.424Z,51.83
2023-01-23T01:46:08.574Z,58.30
2023-01-23T01:48:53.844Z,60.72
2023-01-23T01:51:52.739Z,59.65
2023-01-23T01:54:22.655Z,57.13
2023-01-23T01:57:04.224Z,61.38
2023-01-23T01:59:39.995Z,66.30
2023-01-23T02:02:16.607Z,65.90
2023-01-23T02:04:49.132Z,72.28
2023-01-23T02:07:34.407Z,70.28
2023-01-23T02:10:05.071Z,64.72
2023-01-23T02:12:35.050Z,56.85
2023-01-23T02:15:07.695Z,62.92
2023-01-23T02:17:36.868Z,58.88
2023-01-23T02:20:23.142Z,53.90
2023-01-23T02:23:07.124Z,54.03
2023-01-23T02:25:40.252Z,50.53
2023-01-23T02:28:07.292Z,51.40
2023-01-23T02:30:34.299Z,54.45
2023-01-23T02:33:19.509Z,50.75
2023-01-23T02:35:46.963Z,56.90
2023-01-23T02:38:13.846Z,51.50
2023-01-23T02:40:42.925Z,50.28
2023-01-23T02:43:13.953Z,50.28
2023-01-23T02:45:40.787Z,49.35
2023-01-23T02:48:08.822Z,47.25
2023-01-23T02:50:35.807Z,47.83
2023-01-23T02:53:03.543Z,49.05
2023-01-23T02:55:32.540Z,49.13
2023-01-23T02:58:19.453Z,46.20
2023-01-23T03:00:47.573Z,51.47
2023-01-23T03:03:16.190Z,52.25
2023-01-23T03:05:43.148Z,50.97
2023-01-23T03:08:09.963Z,50.15
2023-01-23T03:10:36.776Z,46.38
2023-01-23T03:13:07.223Z,48.05
2023-01-23T03:15:35.342Z,47.38
2023-01-23T03:18:02.107Z,48.92
2023-01-23T03:20:28.931Z,48.65
2023-01-23T03:22:56.645Z,47.17
2023-01-23T03:25:23.498Z,45.63
2023-01-23T03:27:50.328Z,51.85
2023-01-23T03:30:20.356Z,48.38
2023-01-23T03:32:47.839Z,47.53
2023-01-23T03:35:22.420Z,58.63
2023-01-23T03:37:49.801Z,51.55
2023-01-23T03:40:45.616Z,50.33
2023-01-23T03:43:12.424Z,57.35
2023-01-23T03:45:39.172Z,52.58
2023-01-23T03:48:06.388Z,50.33
2023-01-23T03:50:33.184Z,43.42
2023-01-23T03:53:00.006Z,48.80
2023-01-23T03:55:26.864Z,46.97
2023-01-23T03:57:53.763Z,49.35
2023-01-23T04:00:21.177Z,51.08
2023-01-23T04:02:48.069Z,51.58
2023-01-23T04:05:15.054Z,51.85
2023-01-23T04:07:41.891Z,45.60
2023-01-23T04:10:12.815Z,51.85
2023-01-23T04:12:43.391Z,48.47
2023-01-23T04:15:12.342Z,50.78
2023-01-23T04:17:42.020Z,48.80
2023-01-23T04:20:10.895Z,46.58
2023-01-23T04:22:37.967Z,44.58
2023-01-23T04:25:05.962Z,46.67
2023-01-23T04:27:33.080Z,44.70
2023-01-23T04:29:59.914Z,46.00
2023-01-23T04:32:26.750Z,46.95
2023-01-23T04:34:53.639Z,48.13
2023-01-23T04:37:20.503Z,50.35
2023-01-23T04:39:47.319Z,48.10
2023-01-23T04:42:14.147Z,51.67
2023-01-23T04:44:40.984Z,54.65
2023-01-23T04:47:08.751Z,51.13
2023-01-23T04:49:35.547Z,49.28
2023-01-23T04:52:02.444Z,50.63
2023-01-23T04:54:29.219Z,50.10
2023-01-23T04:56:56.007Z,48.25
2023-01-23T04:59:22.818Z,46.47
2023-01-23T05:01:49.669Z,47.47
2023-01-23T05:04:17.283Z,54.70
2023-01-23T05:06:44.164Z,86.25
2023-01-23T05:09:11.371Z,54.08
2023-01-23T05:11:38.233Z,51.78
2023-01-23T05:14:05.380Z,47.80
2023-01-23T05:16:32.419Z,48.67
2023-01-23T05:18:59.192Z,53.55
2023-01-23T05:21:26.059Z,51.22
2023-01-23T05:23:52.846Z,52.15
2023-01-23T05:26:19.668Z,51.63
2023-01-23T05:28:46.744Z,52.60
2023-01-23T05:31:13.885Z,50.13
2023-01-23T05:33:40.836Z,52.40
2023-01-23T05:36:08.399Z,47.72
2023-01-23T05:38:35.240Z,53.88
2023-01-23T05:41:02.916Z,49.28
2023-01-23T05:43:29.757Z,52.05
2023-01-23T05:46:01.412Z,53.65
2023-01-23T05:48:28.701Z,62.75
2023-01-23T05:50:55.621Z,55.05
2023-01-23T05:53:22.438Z,56.30
2023-01-23T05:55:49.266Z,55.58
2023-01-23T05:58:16.271Z,58.38
2023-01-23T06:00:43.132Z,58.80
2023-01-23T06:03:09.942Z,50.88
2023-01-23T06:05:36.776Z,53.13
2023-01-23T06:08:04.262Z,55.75
2023-01-23T06:10:31.319Z,57.22
2023-01-23T06:12:58.277Z,55.88
2023-01-23T06:15:25.514Z,58.85
2023-01-23T06:17:52.321Z,54.40
2023-01-23T06:20:19.414Z,60.60
2023-01-23T06:22:46.635Z,50.05
2023-01-23T06:25:13.913Z,55.03
2023-01-23T06:27:41.037Z,50.58
2023-01-23T06:30:09.015Z,52.20
2023-01-23T06:32:35.893Z,55.58
2023-01-23T06:35:02.687Z,52.55
2023-01-23T06:37:29.510Z,57.03
2023-01-23T06:39:56.311Z,50.97
2023-01-23T06:42:23.122Z,95.75
2023-01-23T06:44:49.949Z,56.42
2023-01-23T06:47:16.875Z,54.88
2023-01-23T06:49:43.639Z,57.75
2023-01-23T06:52:10.588Z,50.35
2023-01-23T06:54:38.139Z,53.25
2023-01-23T06:57:06.803Z,57.30
2023-01-23T06:59:33.731Z,70.20
2023-01-23T07:02:00.732Z,59.55
2023-01-23T07:04:27.564Z,62.45
2023-01-23T07:06:54.370Z,56.58
2023-01-23T07:09:21.256Z,56.20
2023-01-23T07:11:48.115Z,60.22
2023-01-23T07:14:15.052Z,53.67
2023-01-23T07:16:41.855Z,53.33
2023-01-23T07:19:08.730Z,56.60
2023-01-23T07:21:35.584Z,54.65
2023-01-23T07:24:02.560Z,52.08
2023-01-23T07:26:29.583Z,52.92
2023-01-23T07:28:56.411Z,47.58
2023-01-23T07:31:24.400Z,52.88
2023-01-23T07:33:52.605Z,52.75
2023-01-23T07:36:20.395Z,49.85
2023-01-23T07:38:47.750Z,49.08
2023-01-23T07:41:14.777Z,48.28
2023-01-23T07:43:41.640Z,45.42
2023-01-23T07:46:09.647Z,46.70
2023-01-23T07:48:38.032Z,45.85
2023-01-23T07:51:06.170Z,46.53
2023-01-23T07:53:33.966Z,52.45
2023-01-23T07:56:05.881Z,49.92
2023-01-23T07:58:33.272Z,48.30
2023-01-23T08:01:00.289Z,46.25
2023-01-23T08:03:28.971Z,52.97
2023-01-23T08:05:56.128Z,47.40
2023-01-23T08:08:22.949Z,48.15
2023-01-23T08:10:51.296Z,49.65
2023-01-23T08:13:18.107Z,45.50
2023-01-23T08:15:46.537Z,48.22
2023-01-23T08:18:13.356Z,50.00
2023-01-23T08:20:40.297Z,46.28
2023-01-23T08:23:07.716Z,43.08
2023-01-23T08:25:35.581Z,48.72
2023-01-23T08:28:02.426Z,50.13
2023-01-23T08:30:30.654Z,47.45
2023-01-23T08:32:57.776Z,49.67
2023-01-23T08:35:24.992Z,47.83
2023-01-23T08:37:52.392Z,52.92
2023-01-23T08:40:19.397Z,44.22
2023-01-23T08:42:48.066Z,52.55
2023-01-23T08:45:15.811Z,48.38
2023-01-23T08:47:43.149Z,50.95
2023-01-23T08:50:11.454Z,47.38
2023-01-23T08:52:38.264Z,50.50
2023-01-23T08:55:06.891Z,52.05
2023-01-23T08:57:33.897Z,49.95
2023-01-23T09:00:01.059Z,49.55
2023-01-23T09:02:27.875Z,45.90
2023-01-23T09:04:54.740Z,50.80
2023-01-23T09:07:22.380Z,42.63
2023-01-23T09:09:50.215Z,45.47
2023-01-23T09:12:18.465Z,47.67
2023-01-23T09:14:45.350Z,49.63
2023-01-23T09:17:13.206Z,54.80
2023-01-23T09:19:41.179Z,50.03
2023-01-23T09:22:08.131Z,49.08
2023-01-23T09:24:35.054Z,51.83
2023-01-23T09:27:01.862Z,48.30
2023-01-23T09:29:28.666Z,48.80
2023-01-23T09:31:55.560Z,50.35
2023-01-23T09:34:22.334Z,48.58
2023-01-23T09:36:49.144Z,44.97
2023-01-23T09:39:16.553Z,57.58
2023-01-23T09:41:46.442Z,52.25
2023-01-23T09:44:23.143Z,46.17
2023-01-23T09:47:09.747Z,46.50
2023-01-23T09:49:51.205Z,47.75
2023-01-23T09:52:26.172Z,47.67
2023-01-23T09:55:03.697Z,49.80
2023-01-23T09:57:39.858Z,46.58
2023-01-23T10:00:21.078Z,48.33
2023-01-23T10:02:48.135Z,46.50
2023-01-23T10:05:17.808Z,51.67
2023-01-23T10:08:05.603Z,51.65
2023-01-23T10:10:54.014Z,52.53
2023-01-23T10:14:06.407Z,49.10
2023-01-23T10:17:00.326Z,45.60
2023-01-23T10:19:50.597Z,42.28
2023-01-23T10:22:38.159Z,42.58
2023-01-23T10:25:25.662Z,43.35
2023-01-23T10:28:35.392Z,42.63
2023-01-23T10:31:13.950Z,44.05
2023-01-23T10:34:24.124Z,38.58
2023-01-23T10:37:12.709Z,38.47
2023-01-23T10:39:53.598Z,40.17
2023-01-23T10:42:23.750Z,36.30
2023-01-23T10:44:50.920Z,41.03
2023-01-23T10:47:44.196Z,39.33
2023-01-23T10:50:12.700Z,40.40
2023-01-23T10:52:47.101Z,37.97
2023-01-23T10:55:20.333Z,37.17
2023-01-23T10:57:54.568Z,36.40
2023-01-23T11:00:25.930Z,34.47
2023-01-23T11:02:54.115Z,28.08
2023-01-23T11:05:52.532Z,37.25
2023-01-23T11:08:29.545Z,32.08
2023-01-23T11:11:14.664Z,30.92
2023-01-23T11:13:44.061Z,38.42
2023-01-23T11:16:19.997Z,34.95
2023-01-23T11:18:55.731Z,37.13
2023-01-23T11:21:33.504Z,30.25
2023-01-23T11:24:39.288Z,33.80
2023-01-23T11:27:28.025Z,35.35
2023-01-23T11:30:37.135Z,31.75
2023-01-23T11:33:19.510Z,33.30
2023-01-23T11:36:02.775Z,37.73
2023-01-23T11:38:52.194Z,32.53
2023-01-23T11:41:29.982Z,34.47
2023-01-23T11:43:57.777Z,31.55
2023-01-23T11:46:41.443Z,30.27
2023-01-23T11:49:34.177Z,30.75
2023-01-23T11:52:30.692Z,31.25
2023-01-23T11:55:10.712Z,27.27
2023-01-23T11:57:52.886Z,26.88
2023-01-23T12:01:06.041Z,27.23
2023-01-23T12:04:01.484Z,26.73
2023-01-23T12:07:11.522Z,31.52
2023-01-23T12:10:04.568Z,27.85
2023-01-23T12:13:02.707Z,31.48
2023-01-23T12:15:59.042Z,28.55
2023-01-23T12:19:01.400Z,33.22
2023-01-23T12:22:04.152Z,30.77
2023-01-23T12:24:38.280Z,31.13
2023-01-23T12:27:19.402Z,32.25
2023-01-23T12:29:58.198Z,31.95
2023-01-23T12:32:56.955Z,30.35
2023-01-23T12:35:45.356Z,34.50
2023-01-23T12:38:36.902Z,33.75
2023-01-23T12:41:18.007Z,31.15
2023-01-23T12:43:59.660Z,33.95
2023-01-23T12:47:26.642Z,30.58
2023-01-23T12:50:16.043Z,28.70
2023-01-23T12:52:58.310Z,32.58
2023-01-23T12:55:55.473Z,31.63
2023-01-23T12:58:26.250Z,32.33
2023-01-23T13:01:26.829Z,30.27
2023-01-23T13:04:23.177Z,35.55
2023-01-23T13:07:24.153Z,31.73
2023-01-23T13:11:15.278Z,30.77
2023-01-23T13:13:43.964Z,31.52
2023-01-23T13:16:17.622Z,34.08
2023-01-23T13:19:18.597Z,34.95
2023-01-23T13:22:42.356Z,33.15
2023-01-23T13:25:19.463Z,38.45
2023-01-23T13:27:56.110Z,36.22
2023-01-23T13:30:33.108Z,38.35
2023-01-23T13:33:30.136Z,35.25
2023-01-23T13:36:21.657Z,35.17
2023-01-23T13:39:13.470Z,39.22
2023-01-23T13:41:40.307Z,38.25
2023-01-23T13:44:35.822Z,38.35
2023-01-23T14:24:57.725Z,37.92
2023-01-23T14:27:53.225Z,50.78
2023-01-23T14:30:26.208Z,39.45
2023-01-23T14:32:53.073Z,39.92
2023-01-23T14:35:29.657Z,39.92
2023-01-23T14:38:01.110Z,41.67
2023-01-23T14:40:35.069Z,38.03
2023-01-23T14:43:09.474Z,41.38
2023-01-23T14:45:37.373Z,44.35
2023-01-23T14:48:07.547Z,44.28
2023-01-23T14:50:35.251Z,49.53
2023-01-23T14:53:07.062Z,48.88
2023-01-23T14:55:40.080Z,46.88
2023-01-23T15:00:36.230Z,41.33
2023-01-23T15:03:04.599Z,40.67
2023-01-23T15:05:32.959Z,36.25
2023-01-23T15:08:32.138Z,40.90
2023-01-23T15:11:01.729Z,36.92
2023-01-23T15:13:41.584Z,36.78
2023-01-23T15:16:20.723Z,35.47
2023-01-23T15:18:59.917Z,37.65
2023-01-23T15:21:32.755Z,35.85
2023-01-23T15:24:14.869Z,38.65
2023-01-23T15:26:45.539Z,44.30
2023-01-23T15:29:12.318Z,40.13
2023-01-23T15:31:39.225Z,49.15
2023-01-23T15:34:15.397Z,37.75
2023-01-23T15:36:55.952Z,36.22
2023-01-23T15:39:28.880Z,38.53
2023-01-23T15:42:12.363Z,41.70
2023-01-23T15:44:40.141Z,41.40
2023-01-23T15:47:07.244Z,36.30
2023-01-23T15:49:37.466Z,35.95
2023-01-23T15:52:57.865Z,35.50
2023-01-23T15:55:27.870Z,39.63
2023-01-23T15:57:56.133Z,33.53
2023-01-23T16:00:29.285Z,36.58
2023-01-23T16:02:58.519Z,40.42
2023-01-23T16:05:29.193Z,38.75
2023-01-23T16:07:57.416Z,37.88
2023-01-23T16:10:30.721Z,55.13
2023-01-23T16:12:58.538Z,45.75
2023-01-23T16:15:30.133Z,46.38
2023-01-23T16:17:57.417Z,38.92
2023-01-23T16:20:34.452Z,36.83
2023-01-23T16:23:14.636Z,38.28
2023-01-23T16:25:44.861Z,34.35
2023-01-23T16:28:25.908Z,35.45
2023-01-23T16:30:53.686Z,45.55
2023-01-23T16:33:21.497Z,37.08
2023-01-23T16:35:50.523Z,37.83
2023-01-23T16:38:28.385Z,56.97
2023-01-23T16:40:59.388Z,47.65
2023-01-23T16:43:26.783Z,43.60
2023-01-23T16:45:56.235Z,41.92
2023-01-23T16:48:27.461Z,38.30
2023-01-23T16:51:08.112Z,40.95
2023-01-23T16:53:40.702Z,40.65
2023-01-23T16:56:17.386Z,35.33
2023-01-23T16:58:44.188Z,33.67
2023-01-23T17:01:20.412Z,33.50
2023-01-23T17:03:58.896Z,32.70
2023-01-23T17:06:26.155Z,33.17
2023-01-23T17:08:53.624Z,35.97
2023-01-23T17:11:26.612Z,38.50
2023-01-23T17:16:27.782Z,37.03
2023-01-23T17:18:58.619Z,36.05
2023-01-23T17:21:32.747Z,36.45
2023-01-23T17:23:59.695Z,40.60
2023-01-23T17:26:26.474Z,43.28
2023-01-23T17:28:53.433Z,38.25
2023-01-23T17:31:26.166Z,40.35
2023-01-23T17:33:53.131Z,42.90
2023-01-23T17:36:20.057Z,40.67
2023-01-23T17:38:47.057Z,40.78
2023-01-23T17:41:17.543Z,42.78
2023-01-23T17:43:44.763Z,42.60
2023-01-23T17:46:26.801Z,44.95
2023-01-23T17:48:55.638Z,42.97
2023-01-23T17:51:23.934Z,44.17
2023-01-23T17:53:51.492Z,41.95
2023-01-23T17:56:19.065Z,44.60
2023-01-23T17:58:45.938Z,40.53
2023-01-23T18:01:22.208Z,39.63
2023-01-23T18:03:50.858Z,37.67
2023-01-23T18:06:20.698Z,42.60
2023-01-23T18:08:47.768Z,41.65
2023-01-23T18:11:21.305Z,37.13
2023-01-23T18:14:20.890Z,45.78
2023-01-23T18:16:49.832Z,40.17
2023-01-23T18:19:25.407Z,42.25
2023-01-23T18:21:55.753Z,36.53
2023-01-23T18:24:31.704Z,32.05
2023-01-23T18:27:24.244Z,34.72
2023-01-23T18:30:19.383Z,30.53
2023-01-23T18:33:07.894Z,34.40
2023-01-23T18:36:04.859Z,35.78
2023-01-23T18:38:52.957Z,40.17
2023-01-23T18:41:28.913Z,40.08
2023-01-23T18:44:25.169Z,39.38
2023-01-23T18:46:52.288Z,45.05
2023-01-23T18:49:32.286Z,33.83
2023-01-23T18:52:14.571Z,35.35
2023-01-23T18:54:59.791Z,34.97
2023-01-23T18:57:57.253Z,46.38
2023-01-23T19:00:35.917Z,45.92
2023-01-23T19:03:16.481Z,37.78
2023-01-23T19:05:44.922Z,41.80
2023-01-23T19:08:32.591Z,45.40
2023-01-23T19:11:10.661Z,42.22
2023-01-23T19:14:37.551Z,46.67
2023-01-23T19:17:19.792Z,49.75
2023-01-23T19:20:21.537Z,56.00
2023-01-23T19:23:36.790Z,46.28
2023-01-23T19:26:04.017Z,45.95
2023-01-23T19:28:31.208Z,39.53
2023-01-23T19:30:58.508Z,38.88
2023-01-23T19:33:25.330Z,44.22
2023-01-23T19:35:54.900Z,46.45
2023-01-23T19:38:23.485Z,36.85
2023-01-23T19:40:50.431Z,42.95
2023-01-23T19:43:18.783Z,44.80
2023-01-23T19:45:46.687Z,40.00
2023-01-23T19:48:14.459Z,63.63
2023-01-23T19:50:41.342Z,59.47
2023-01-23T19:53:11.993Z,49.95
2023-01-23T19:55:38.698Z,45.33
2023-01-23T19:58:05.640Z,54.22
2023-01-23T20:00:35.863Z,48.47
2023-01-23T20:03:04.844Z,44.13
2023-01-23T20:05:31.888Z,68.93
2023-01-23T20:07:58.767Z,50.47
2023-01-23T20:10:25.733Z,51.22
2023-01-23T20:12:54.139Z,46.95
2023-01-23T20:15:24.174Z,40.22
2023-01-23T20:17:52.572Z,39.20
2023-01-23T20:20:21.075Z,42.90
2023-01-23T20:22:48.080Z,39.35
2023-01-23T20:25:17.121Z,36.92
2023-01-23T20:27:44.629Z,41.00
2023-01-23T20:30:19.648Z,38.05
2023-01-23T20:32:46.805Z,46.28
2023-01-23T20:35:13.645Z,37.55
2023-01-23T20:37:40.449Z,38.38
2023-01-23T20:40:14.114Z,40.15
2023-01-23T20:42:41.005Z,36.58
2023-01-23T20:45:08.491Z,40.17
2023-01-23T20:47:36.176Z,36.75
2023-01-23T20:50:03.235Z,41.83
2023-01-23T20:52:48.346Z,42.90
2023-01-23T20:55:15.175Z,40.92
2023-01-23T20:58:00.322Z,49.95
2023-01-23T21:00:27.090Z,41.55
2023-01-23T21:02:53.974Z,41.25
2023-01-23T21:05:21.157Z,35.25
2023-01-23T21:07:48.090Z,37.17
2023-01-23T21:10:15.696Z,36.53
2023-01-23T21:12:42.456Z,37.88
2023-01-23T21:15:10.104Z,34.17
2023-01-23T21:17:36.872Z,34.30
2023-01-23T21:20:03.986Z,40.47
2023-01-23T21:22:30.828Z,34.53
2023-01-23T21:24:57.605Z,34.72
2023-01-23T21:27:25.312Z,37.00
2023-01-23T21:29:52.854Z,34.83
2023-01-23T21:32:21.121Z,34.88
2023-01-23T21:34:47.892Z,35.92
2023-01-23T21:37:14.642Z,35.20
2023-01-23T21:39:41.450Z,35.03
2023-01-23T21:42:08.216Z,32.38
2023-01-23T21:44:35.875Z,33.95
2023-01-23T21:47:03.142Z,35.58
2023-01-23T21:49:31.307Z,33.03
2023-01-23T21:51:58.191Z,32.78
2023-01-23T21:54:25.399Z,32.28
2023-01-23T21:56:52.178Z,34.95
2023-01-23T21:59:19.011Z,34.20
2023-01-23T22:01:46.739Z,32.80
2023-01-23T22:04:18.167Z,33.38
2023-01-23T22:06:46.001Z,30.30
2023-01-23T22:09:17.941Z,31.13
2023-01-23T22:11:45.757Z,23.67
2023-01-23T22:14:13.216Z,25.70
2023-01-23T22:16:48.337Z,29.00
2023-01-23T22:19:20.095Z,27.77
2023-01-23T22:21:48.202Z,28.60
2023-01-23T22:24:15.531Z,25.95
2023-01-23T22:26:43.182Z,27.17
2023-01-23T22:29:12.779Z,29.95
2023-01-23T22:31:39.672Z,30.10
2023-01-23T22:34:06.602Z,24.92
2023-01-23T22:36:33.378Z,23.63
2023-01-23T22:39:00.392Z,26.13
2023-01-23T22:41:28.463Z,28.25
2023-01-23T22:43:56.897Z,29.60
2023-01-23T22:46:24.297Z,26.00
2023-01-23T22:48:51.655Z,25.45
2023-01-23T22:51:24.520Z,25.88
2023-01-23T22:53:53.682Z,26.23
2023-01-23T22:56:21.294Z,29.38
2023-01-23T22:58:51.280Z,28.55
2023-01-23T23:01:19.178Z,23.33
2023-01-23T23:03:46.639Z,20.75
2023-01-23T23:06:17.209Z,22.77
2023-01-23T23:08:47.728Z,21.95
2023-01-23T23:11:21.800Z,20.60
2023-01-23T23:13:49.569Z,21.23
2023-01-23T23:16:23.787Z,23.10
2023-01-23T23:18:54.024Z,21.33
2023-01-23T23:21:25.499Z,18.33
2023-01-23T23:23:59.668Z,19.33
2023-01-23T23:26:29.903Z,20.08
2023-01-23T23:28:57.803Z,22.50
2023-01-23T23:31:30.302Z,22.65
2023-01-23T23:33:57.728Z,33.58
2023-01-23T23:36:24.873Z,39.05
2023-01-23T23:38:51.823Z,33.08
2023-01-23T23:41:18.917Z,23.08
2023-01-23T23:43:45.840Z,21.70
2023-01-23T23:46:14.117Z,20.63
2023-01-23T23:48:41.766Z,22.05
2023-01-23T23:51:12.876Z,22.25
2023-01-23T23:53:39.986Z,23.52
2023-01-23T23:56:07.712Z,21.33
2023-01-23T23:58:37.999Z,20.35
